Terminal Aerodrome Forecast
Issued by NWS Huntsville, AL

Home | Current Version | Previous Version | Text Only | Print | Product List | Glossary On
Versions: 1 2 3 4 5 6 7 8 9 10 11 12 13 14 15
000
FTUS44 KHUN 232320
TAFHSV
TAF
KHSV 232320Z 2400/2424 18007KT P6SM FEW050 SCT250
     FM240300 15005KT P6SM SCT250
     FM241100 15010KT P6SM BKN025
     FM241600 19014G21KT P6SM OVC040=

USA.gov is the U.S. government's official web portal to all federal, state and local government web resources and services.